createdAt,value
2022-11-16T00:01:49.421Z,15.05
2022-11-16T00:04:17.249Z,15.27
2022-11-16T00:06:46.330Z,16.60
2022-11-16T00:09:22.801Z,16.27
2022-11-16T00:11:54.658Z,15.90
2022-11-16T00:14:22.955Z,14.43
2022-11-16T00:16:50.511Z,18.25
2022-11-16T00:19:18.167Z,15.88
2022-11-16T00:21:45.765Z,14.85
2022-11-16T00:24:14.731Z,17.48
2022-11-16T00:26:42.592Z,16.58
2022-11-16T00:29:15.345Z,16.02
2022-11-16T00:31:43.225Z,16.08
2022-11-16T00:34:10.824Z,17.10
2022-11-16T00:36:38.411Z,15.65
2022-11-16T00:39:06.075Z,16.45
2022-11-16T00:41:33.610Z,17.05
2022-11-16T00:44:01.173Z,13.98
2022-11-16T00:46:28.852Z,14.80
2022-11-16T00:48:56.416Z,12.15
2022-11-16T00:51:24.026Z,14.48
2022-11-16T00:53:51.754Z,12.70
2022-11-16T00:56:19.344Z,12.10
2022-11-16T00:58:46.917Z,12.60
2022-11-16T01:01:14.841Z,12.57
2022-11-16T01:03:42.524Z,12.55
2022-11-16T01:06:11.465Z,12.02
2022-11-16T01:08:39.905Z,11.77
2022-11-16T01:11:26.643Z,13.85
2022-11-16T01:13:54.333Z,12.43
2022-11-16T01:16:22.980Z,12.60
2022-11-16T01:18:51.616Z,11.88
2022-11-16T01:21:19.623Z,11.75
2022-11-16T01:23:47.377Z,6.70
2022-11-16T01:26:14.945Z,7.85
2022-11-16T01:28:43.209Z,6.72
2022-11-16T01:31:11.627Z,5.80
2022-11-16T01:33:39.292Z,6.10
2022-11-16T01:36:16.873Z,3.15
2022-11-16T01:38:45.649Z,3.33
2022-11-16T01:41:19.132Z,2.83
2022-11-16T01:43:51.695Z,2.22
2022-11-16T01:46:19.449Z,1.80
2022-11-16T01:48:48.407Z,1.20
2022-11-16T01:51:16.704Z,1.85
2022-11-16T01:53:44.419Z,1.50
2022-11-16T01:56:12.072Z,1.50
2022-11-16T01:58:58.306Z,1.27
2022-11-16T02:01:27.294Z,1.30
2022-11-16T02:06:28.506Z,1.38
2022-11-16T02:09:38.811Z,1.80
2022-11-16T02:12:13.779Z,2.22
2022-11-16T02:14:51.096Z,1.55
2022-11-16T02:17:26.306Z,1.48
2022-11-16T02:20:12.527Z,1.50
2022-11-16T02:22:50.594Z,2.10
2022-11-16T02:25:27.227Z,2.00
2022-11-16T02:28:08.499Z,1.95
2022-11-16T02:30:37.276Z,3.75
2022-11-16T02:33:08.374Z,6.20
2022-11-16T02:38:09.511Z,8.27
2022-11-16T02:43:07.386Z,8.38
2022-11-16T02:45:38.252Z,10.02
2022-11-16T02:48:08.653Z,10.52
2022-11-16T02:50:36.790Z,11.10
2022-11-16T02:53:04.488Z,11.05
2022-11-16T02:55:35.217Z,10.18
2022-11-16T02:58:04.831Z,10.65
2022-11-16T03:00:36.493Z,10.15
2022-11-16T03:03:11.453Z,10.52
2022-11-16T03:05:45.451Z,9.02
2022-11-16T03:08:33.828Z,10.55
2022-11-16T03:11:24.966Z,10.95
2022-11-16T03:13:57.194Z,9.48
2022-11-16T03:16:26.366Z,9.13
2022-11-16T03:18:55.996Z,9.75
2022-11-16T03:21:43.560Z,9.52
2022-11-16T03:24:11.324Z,10.45
2022-11-16T03:26:59.518Z,9.20
2022-11-16T03:29:30.174Z,9.70
2022-11-16T03:32:10.004Z,10.40
2022-11-16T03:34:39.354Z,10.30
2022-11-16T03:37:10.416Z,11.05
2022-11-16T03:42:09.338Z,10.82
2022-11-16T03:44:37.701Z,10.75
2022-11-16T03:47:06.828Z,10.88
2022-11-16T03:49:34.437Z,10.45
2022-11-16T03:52:02.811Z,10.80
2022-11-16T03:54:32.925Z,9.70
2022-11-16T03:57:01.712Z,10.52
2022-11-16T03:59:29.311Z,9.90
2022-11-16T04:01:57.452Z,9.98
2022-11-16T04:04:44.512Z,12.10
2022-11-16T04:07:30.658Z,12.05
2022-11-16T04:10:17.170Z,12.55
2022-11-16T04:13:03.800Z,14.55
2022-11-16T04:15:49.989Z,15.43
2022-11-16T04:18:36.658Z,15.32
2022-11-16T04:21:24.073Z,17.52
2022-11-16T04:24:10.181Z,18.02
2022-11-16T04:26:57.033Z,18.73
2022-11-16T04:29:24.998Z,20.20
2022-11-16T04:32:11.316Z,20.35
2022-11-16T04:34:57.536Z,19.10
2022-11-16T04:37:44.609Z,20.30
2022-11-16T04:40:12.508Z,17.27
2022-11-16T04:42:41.364Z,18.15
2022-11-16T04:45:29.166Z,16.42
2022-11-16T04:47:56.727Z,15.20
2022-11-16T04:50:30.029Z,15.77
2022-11-16T04:52:59.230Z,16.58
2022-11-16T04:55:26.863Z,17.10
2022-11-16T04:57:54.914Z,14.30
2022-11-16T05:00:22.828Z,15.90
2022-11-16T05:02:51.169Z,12.38
2022-11-16T05:05:19.030Z,9.73
2022-11-16T05:07:48.342Z,7.57
2022-11-16T05:10:24.596Z,6.25
2022-11-16T05:12:53.367Z,5.53
2022-11-16T05:15:21.139Z,4.68
2022-11-16T05:17:51.011Z,3.25
2022-11-16T05:20:41.008Z,3.80
2022-11-16T05:23:29.131Z,4.10
2022-11-16T05:26:00.392Z,4.60
2022-11-16T05:28:28.738Z,5.15
2022-11-16T05:30:56.333Z,5.57
2022-11-16T05:33:25.299Z,5.97
2022-11-16T05:35:53.387Z,5.57
2022-11-16T05:38:23.137Z,4.03
2022-11-16T05:40:55.189Z,4.15
2022-11-16T05:43:23.106Z,3.20
2022-11-16T05:46:04.117Z,3.58
2022-11-16T05:48:32.358Z,3.13
2022-11-16T05:51:00.665Z,2.97
2022-11-16T05:53:31.480Z,3.85
2022-11-16T05:55:59.732Z,3.40
2022-11-16T05:58:28.362Z,4.03
2022-11-16T06:00:58.735Z,2.55
2022-11-16T06:03:31.156Z,2.08
2022-11-16T06:06:00.181Z,1.60
2022-11-16T06:08:29.845Z,1.67
2022-11-16T06:11:04.988Z,1.55
2022-11-16T06:13:33.679Z,1.60
2022-11-16T06:16:02.627Z,1.98
2022-11-16T06:18:32.285Z,1.30
2022-11-16T06:21:00.132Z,1.90
2022-11-16T06:23:27.745Z,1.98
2022-11-16T06:25:55.722Z,1.30
2022-11-16T06:28:25.928Z,0.80
2022-11-16T06:30:54.323Z,1.30
2022-11-16T06:33:24.426Z,1.58
2022-11-16T06:35:52.237Z,1.40
2022-11-16T06:38:23.659Z,1.30
2022-11-16T06:40:54.271Z,1.38
2022-11-16T06:43:24.004Z,2.25
2022-11-16T06:45:52.315Z,2.28
2022-11-16T06:48:20.557Z,1.20
2022-11-16T06:50:49.712Z,1.13
2022-11-16T06:53:18.888Z,1.17
2022-11-16T06:55:48.505Z,1.00
2022-11-16T06:58:16.647Z,1.00
2022-11-16T07:00:45.574Z,0.98
2022-11-16T07:03:14.702Z,1.10
2022-11-16T07:05:42.386Z,1.10
2022-11-16T07:08:14.276Z,0.80
2022-11-16T07:10:41.850Z,1.20
2022-11-16T07:13:09.352Z,0.70
2022-11-16T07:15:39.368Z,1.05
2022-11-16T07:18:08.633Z,0.60
2022-11-16T07:20:38.922Z,0.75
2022-11-16T07:23:11.372Z,1.15
2022-11-16T07:25:41.931Z,1.25
2022-11-16T07:28:09.823Z,1.10
2022-11-16T07:30:37.795Z,0.95
2022-11-16T07:33:09.601Z,0.77
2022-11-16T07:35:56.080Z,4.60
2022-11-16T07:38:23.726Z,13.80
2022-11-16T07:40:51.307Z,20.90
2022-11-16T07:43:21.814Z,8.82
2022-11-16T07:46:44.800Z,5.97
2022-11-16T07:48:55.238Z,1.27
2022-11-16T07:51:42.151Z,1.77
2022-11-16T07:54:32.929Z,1.15
2022-11-16T07:57:00.471Z,1.48
2022-11-16T07:59:28.648Z,2.90
2022-11-16T08:01:56.697Z,2.20
2022-11-16T08:04:25.557Z,2.67
2022-11-16T08:06:53.296Z,3.75
2022-11-16T08:09:22.233Z,2.50
2022-11-16T08:11:51.701Z,2.47
2022-11-16T08:14:19.730Z,3.10
2022-11-16T08:16:49.744Z,2.83
2022-11-16T08:19:18.424Z,2.65
2022-11-16T08:21:46.013Z,2.60
2022-11-16T08:24:15.827Z,3.30
2022-11-16T08:26:45.126Z,2.58
2022-11-16T08:29:15.932Z,2.22
2022-11-16T08:31:48.855Z,2.88
2022-11-16T08:36:50.784Z,3.10
2022-11-16T08:41:51.100Z,4.63
2022-11-16T08:44:25.198Z,3.40
2022-11-16T08:46:55.399Z,4.75
2022-11-16T08:49:33.196Z,3.63
2022-11-16T08:52:00.942Z,3.53
2022-11-16T08:54:30.429Z,4.07
2022-11-16T08:56:58.483Z,4.22
2022-11-16T08:59:26.403Z,4.20
2022-11-16T09:01:57.567Z,4.85
2022-11-16T09:04:25.396Z,3.35
2022-11-16T09:06:53.358Z,3.95
2022-11-16T09:09:21.400Z,3.47
2022-11-16T09:11:52.084Z,3.22
2022-11-16T09:14:19.711Z,2.70
2022-11-16T09:16:47.292Z,2.47
2022-11-16T09:19:14.907Z,2.20
2022-11-16T09:21:44.438Z,0.90
2022-11-16T09:24:12.927Z,0.70
2022-11-16T09:26:40.576Z,1.23
2022-11-16T09:29:14.691Z,1.15
2022-11-16T09:31:45.935Z,0.80
2022-11-16T09:34:13.550Z,1.10
2022-11-16T09:36:41.209Z,1.65
2022-11-16T09:42:15.395Z,1.20
2022-11-16T09:44:58.406Z,15.85
2022-11-16T09:47:31.514Z,4.60
2022-11-16T09:50:03.774Z,2.25
2022-11-16T09:52:32.183Z,0.65
2022-11-16T09:55:02.096Z,0.65
2022-11-16T09:57:35.348Z,0.55
2022-11-16T10:00:05.368Z,1.70
2022-11-16T10:02:46.072Z,0.77
2022-11-16T10:05:21.397Z,0.50
2022-11-16T10:07:51.625Z,0.70
2022-11-16T10:10:25.963Z,1.08
2022-11-16T10:13:12.319Z,1.05
2022-11-16T10:15:51.311Z,0.98
2022-11-16T10:18:29.550Z,0.60
2022-11-16T10:21:00.286Z,1.85
2022-11-16T10:23:40.114Z,1.38
2022-11-16T10:26:19.715Z,1.60
2022-11-16T10:28:57.831Z,0.82
2022-11-16T10:31:46.736Z,2.22
2022-11-16T10:34:18.512Z,0.50
2022-11-16T10:36:46.596Z,5.53
2022-11-16T10:39:15.192Z,4.05
2022-11-16T10:41:44.162Z,2.35
2022-11-16T10:44:26.449Z,1.20
2022-11-16T10:47:01.379Z,1.15
2022-11-16T10:49:35.064Z,0.90
2022-11-16T10:52:02.985Z,0.77
2022-11-16T10:54:30.570Z,0.80
2022-11-16T10:57:03.292Z,0.80
2022-11-16T10:59:44.513Z,0.57
2022-11-16T11:02:32.716Z,0.50
2022-11-16T11:05:26.984Z,0.90
2022-11-16T11:08:01.627Z,0.60
2022-11-16T11:10:42.593Z,1.05
2022-11-16T11:15:38.440Z,0.77
2022-11-16T11:18:14.125Z,0.55
2022-11-16T11:20:44.986Z,0.93
2022-11-16T11:23:31.217Z,0.70
2022-11-16T12:00:47.176Z,1.08
2022-11-16T12:03:40.578Z,0.80
2022-11-16T12:10:42.080Z,0.77
2022-11-16T12:24:31.902Z,1.20
2022-11-16T12:31:57.421Z,0.75
2022-11-16T12:34:54.267Z,1.00
2022-11-16T12:37:53.714Z,0.85
2022-11-16T12:52:30.394Z,0.90
2022-11-16T12:55:26.285Z,0.75
2022-11-16T12:58:47.294Z,0.90
2022-11-16T13:01:23.718Z,1.05
2022-11-16T13:04:23.922Z,1.00
2022-11-16T13:07:19.704Z,0.52
2022-11-16T13:21:21.490Z,1.33
2022-11-16T13:23:49.723Z,1.13
2022-11-16T13:30:01.852Z,1.33
2022-11-16T13:32:52.406Z,1.57
2022-11-16T13:39:00.112Z,0.98
2022-11-16T13:41:29.683Z,1.17
2022-11-16T13:43:57.409Z,1.38
2022-11-16T13:49:31.759Z,1.00
2022-11-16T13:52:22.164Z,1.17
2022-11-16T13:55:01.642Z,1.88
2022-11-16T13:57:40.247Z,1.40
2022-11-16T14:02:44.382Z,1.30
2022-11-16T14:05:18.061Z,1.38
2022-11-16T14:07:50.900Z,0.95
2022-11-16T14:13:37.649Z,1.52
2022-11-16T14:16:23.138Z,1.58
2022-11-16T14:18:59.649Z,1.70
2022-11-16T14:21:30.426Z,3.30
2022-11-16T14:24:11.619Z,1.83
2022-11-16T14:26:57.813Z,2.20
2022-11-16T14:29:51.664Z,1.73
2022-11-16T14:35:07.197Z,1.63
2022-11-16T14:37:41.272Z,1.83
2022-11-16T14:40:20.456Z,1.55
2022-11-16T14:45:48.445Z,2.08
2022-11-16T14:48:20.306Z,2.08
2022-11-16T14:51:12.995Z,1.55
2022-11-16T14:53:50.822Z,1.90
2022-11-16T14:56:21.810Z,1.20
2022-11-16T15:04:57.289Z,2.05
2022-11-16T15:07:32.916Z,1.92
2022-11-16T15:10:15.539Z,2.30
2022-11-16T15:12:44.749Z,2.80
2022-11-16T15:15:12.461Z,2.55
2022-11-16T15:17:41.529Z,2.00
2022-11-16T15:20:19.977Z,2.20
2022-11-16T15:22:48.671Z,3.40
2022-11-16T15:25:37.871Z,3.80
2022-11-16T15:28:20.053Z,2.33
2022-11-16T15:30:50.220Z,1.90
2022-11-16T15:36:33.205Z,2.40
2022-11-16T15:39:02.930Z,2.55
2022-11-16T15:41:30.720Z,3.05
2022-11-16T15:44:13.938Z,2.30
2022-11-16T15:46:47.845Z,2.33
2022-11-16T15:49:21.771Z,2.10
2022-11-16T15:51:53.927Z,2.70
2022-11-16T15:54:51.783Z,2.17
2022-11-16T15:57:24.696Z,2.45
2022-11-16T15:59:57.426Z,2.70
2022-11-16T16:02:27.652Z,2.83
2022-11-16T16:04:55.294Z,2.22
2022-11-16T16:07:42.393Z,2.42
2022-11-16T16:10:19.141Z,2.42
2022-11-16T16:12:53.050Z,2.45
2022-11-16T16:15:25.262Z,2.70
2022-11-16T16:17:54.604Z,2.35
2022-11-16T16:20:25.886Z,2.47
2022-11-16T16:22:59.938Z,2.15
2022-11-16T16:25:37.068Z,2.35
2022-11-16T16:28:04.874Z,2.92
2022-11-16T16:30:35.521Z,3.70
2022-11-16T16:35:45.545Z,4.53
2022-11-16T16:38:14.021Z,3.80
2022-11-16T16:40:42.095Z,4.93
2022-11-16T16:43:10.351Z,4.50
2022-11-16T16:45:40.228Z,4.32
2022-11-16T16:48:09.511Z,4.35
2022-11-16T16:50:38.071Z,3.65
2022-11-16T16:53:05.755Z,3.88
2022-11-16T16:55:37.426Z,3.63
2022-11-16T16:58:06.283Z,4.18
2022-11-16T17:00:34.466Z,3.47
2022-11-16T17:03:03.392Z,3.30
2022-11-16T17:05:34.454Z,3.05
2022-11-16T17:10:30.139Z,2.92
2022-11-16T17:12:57.928Z,3.10
2022-11-16T17:15:26.508Z,2.90
2022-11-16T17:17:54.319Z,2.55
2022-11-16T17:20:21.947Z,2.67
2022-11-16T17:22:49.543Z,2.58
2022-11-16T17:25:17.258Z,2.47
2022-11-16T17:27:44.832Z,2.95
2022-11-16T17:30:12.783Z,2.55
2022-11-16T17:32:40.350Z,3.42
2022-11-16T17:35:08.061Z,3.13
2022-11-16T17:37:35.703Z,3.15
2022-11-16T17:40:03.397Z,3.75
2022-11-16T17:42:33.086Z,3.45
2022-11-16T17:45:00.579Z,4.25
2022-11-16T17:47:28.458Z,4.10
2022-11-16T17:49:56.016Z,3.47
2022-11-16T17:52:23.544Z,4.07
2022-11-16T17:54:51.092Z,4.45
2022-11-16T17:57:18.681Z,4.63
2022-11-16T17:59:46.681Z,3.55
2022-11-16T18:02:15.584Z,5.13
2022-11-16T18:04:48.151Z,6.13
2022-11-16T18:07:18.458Z,5.88
2022-11-16T18:09:46.174Z,5.45
2022-11-16T18:12:13.750Z,5.28
2022-11-16T18:14:42.494Z,4.75
2022-11-16T18:17:10.461Z,4.65
2022-11-16T18:19:38.080Z,3.65
2022-11-16T18:22:05.700Z,3.38
2022-11-16T18:24:33.396Z,4.05
2022-11-16T18:27:01.007Z,3.20
2022-11-16T18:29:28.835Z,3.85
2022-11-16T18:31:57.525Z,3.97
2022-11-16T18:34:26.951Z,4.78
2022-11-16T18:36:55.208Z,4.60
2022-11-16T18:39:24.438Z,4.28
2022-11-16T18:41:55.283Z,4.07
2022-11-16T18:44:23.433Z,3.92
2022-11-16T18:46:51.063Z,3.75
2022-11-16T18:49:18.965Z,3.70
2022-11-16T18:51:46.593Z,4.03
2022-11-16T18:54:14.302Z,3.40
2022-11-16T18:56:42.224Z,3.75
2022-11-16T18:59:09.908Z,3.60
2022-11-16T19:01:37.799Z,4.47
2022-11-16T19:04:07.895Z,3.92
2022-11-16T19:06:35.772Z,4.07
2022-11-16T19:09:06.210Z,4.05
2022-11-16T19:11:33.892Z,4.30
2022-11-16T19:14:03.984Z,4.53
2022-11-16T19:16:32.142Z,3.70
2022-11-16T19:19:01.373Z,4.60
2022-11-16T19:21:29.127Z,4.30
2022-11-16T19:23:57.864Z,4.15
2022-11-16T19:26:26.994Z,4.63
2022-11-16T19:28:55.555Z,4.55
2022-11-16T19:31:29.426Z,4.20
2022-11-16T19:33:58.559Z,3.95
2022-11-16T19:36:34.924Z,4.00
2022-11-16T19:41:45.773Z,3.40
2022-11-16T19:44:14.408Z,4.40
2022-11-16T19:46:42.172Z,3.85
2022-11-16T19:49:19.466Z,3.65
2022-11-16T19:51:47.518Z,4.32
2022-11-16T19:54:15.259Z,4.05
2022-11-16T19:56:43.124Z,4.85
2022-11-16T19:59:10.915Z,4.43
2022-11-16T20:01:38.560Z,3.60
2022-11-16T20:04:06.243Z,5.93
2022-11-16T20:06:35.115Z,4.35
2022-11-16T20:09:08.548Z,4.75
2022-11-16T20:11:37.309Z,5.88
2022-11-16T20:14:06.149Z,5.00
2022-11-16T20:16:40.421Z,3.85
2022-11-16T20:19:08.951Z,4.03
2022-11-16T20:21:37.788Z,3.95
2022-11-16T20:24:08.639Z,4.53
2022-11-16T20:26:37.061Z,4.40
2022-11-16T20:29:06.315Z,3.33
2022-11-16T20:31:34.884Z,3.55
2022-11-16T20:34:04.228Z,3.20
2022-11-16T20:36:32.528Z,3.83
2022-11-16T20:39:00.995Z,3.28
2022-11-16T20:41:29.791Z,3.90
2022-11-16T20:44:01.196Z,3.53
2022-11-16T20:46:30.068Z,4.07
2022-11-16T20:48:59.352Z,3.80
2022-11-16T20:51:27.212Z,3.33
2022-11-16T20:53:58.485Z,3.40
2022-11-16T20:56:26.990Z,3.90
2022-11-16T20:58:55.172Z,3.30
2022-11-16T21:01:28.876Z,4.55
2022-11-16T21:03:56.841Z,3.83
2022-11-16T21:06:25.718Z,3.78
2022-11-16T21:08:54.785Z,3.83
2022-11-16T21:11:30.150Z,4.57
2022-11-16T21:14:18.684Z,3.63
2022-11-16T21:16:46.801Z,4.00
2022-11-16T21:19:18.202Z,4.57
2022-11-16T21:21:45.945Z,4.07
2022-11-16T21:24:13.604Z,5.50
2022-11-16T21:26:48.956Z,4.32
2022-11-16T21:29:25.723Z,5.47
2022-11-16T21:31:53.471Z,4.32
2022-11-16T21:34:21.215Z,4.60
2022-11-16T21:37:00.877Z,4.25
2022-11-16T21:39:28.996Z,4.10
2022-11-16T21:41:56.829Z,4.60
2022-11-16T21:44:44.680Z,3.63
2022-11-16T21:47:13.294Z,4.00
2022-11-16T21:50:02.422Z,4.50
2022-11-16T21:52:34.474Z,3.63
2022-11-16T21:55:07.892Z,3.28
2022-11-16T21:57:36.610Z,3.30
2022-11-16T22:00:08.446Z,3.88
2022-11-16T22:02:42.637Z,4.07
2022-11-16T22:05:29.542Z,3.92
2022-11-16T22:08:05.970Z,4.07
2022-11-16T22:10:37.262Z,4.38
2022-11-16T22:13:05.187Z,4.20
2022-11-16T22:15:33.242Z,4.18
2022-11-16T22:18:01.911Z,3.67
2022-11-16T22:20:30.110Z,4.18
2022-11-16T22:22:58.198Z,3.40
2022-11-16T22:25:26.470Z,4.05
2022-11-16T22:30:45.062Z,3.88
2022-11-16T22:33:15.343Z,3.58
2022-11-16T22:35:43.408Z,4.28
2022-11-16T22:38:12.012Z,4.28
2022-11-16T22:40:39.998Z,4.82
2022-11-16T22:43:08.008Z,4.68
2022-11-16T22:45:35.953Z,4.20
2022-11-16T22:48:04.174Z,4.85
2022-11-16T22:50:34.135Z,5.22
2022-11-16T22:53:01.993Z,6.22
2022-11-16T22:55:29.662Z,4.82
2022-11-16T22:57:57.522Z,5.35
2022-11-16T23:00:25.174Z,4.93
2022-11-16T23:02:52.943Z,4.40
2022-11-16T23:05:20.618Z,3.97
2022-11-16T23:07:48.161Z,4.13
2022-11-16T23:10:16.000Z,4.57
2022-11-16T23:13:13.131Z,4.35
2022-11-16T23:15:49.819Z,4.65
2022-11-16T23:18:19.544Z,4.88
2022-11-16T23:21:05.815Z,3.95
2022-11-16T23:23:51.863Z,4.72
2022-11-16T23:26:41.199Z,4.72
2022-11-16T23:29:09.941Z,4.03
2022-11-16T23:31:37.634Z,3.33
2022-11-16T23:34:05.519Z,3.97
2022-11-16T23:36:33.117Z,4.57
2022-11-16T23:39:00.686Z,3.80
2022-11-16T23:41:46.857Z,3.65
2022-11-16T23:44:14.472Z,4.00
2022-11-16T23:46:41.996Z,3.60
2022-11-16T23:49:09.865Z,4.22
2022-11-16T23:51:37.459Z,3.88
2022-11-16T23:54:05.825Z,3.75
2022-11-16T23:56:33.529Z,4.57
2022-11-16T23:59:01.198Z,4.38
